Time,TemperatureF,DewpointF,PressureIn,WindDirection,WindDirectionDegrees,WindSpeedMPH,WindSpeedGustMPH,Humidity,HourlyPrecipIn,Conditions,Clouds,dailyrainin,SoftwareType,DateUTC
2013-07-05 00:03:00,65.5,60.8,30.06,South,191,0.0,2.0,85,0.08,RA,RA,0.08,WeatherDisplay:10.37,2013-07-05 04:03:00,
2013-07-05 00:18:00,65.8,61.5,30.06,NNE,14,0.0,1.0,86,0.08,CLR,CLR,0.08,WeatherDisplay:10.37,2013-07-05 04:18:00,
2013-07-05 00:33:00,66.0,62.0,30.09,South,180,0.0,1.0,87,0.04,CLR,CLR,0.08,WeatherDisplay:10.37,2013-07-05 04:33:00,
2013-07-05 00:48:00,65.8,61.5,30.09,West,266,0.0,1.0,86,0.04,CLR,CLR,0.08,WeatherDisplay:10.37,2013-07-05 04:48:00,
2013-07-05 01:03:00,65.8,61.2,30.06,South,180,0.0,1.0,85,0.00,CLR,CLR,0.08,WeatherDisplay:10.37,2013-07-05 05:03:00,
2013-07-05 01:18:00,65.8,61.2,30.06,South,180,0.0,0.0,85,0.00,CLR,CLR,0.08,WeatherDisplay:10.37,2013-07-05 05:18:00,
2013-07-05 01:33:00,66.0,61.4,30.09,South,180,0.0,1.0,85,0.00,CLR,CLR,0.08,WeatherDisplay:10.37,2013-07-05 05:33:00,
2013-07-05 01:48:00,66.0,61.4,30.09,South,180,0.0,0.0,85,0.00,CLR,CLR,0.08,WeatherDisplay:10.37,2013-07-05 05:48:00,
2013-07-05 02:03:00,66.0,61.7,30.09,South,180,1.0,1.0,86,0.00,CLR,CLR,0.08,WeatherDisplay:10.37,2013-07-05 06:03:00,
2013-07-05 02:18:00,66.2,61.9,30.09,South,180,0.0,0.0,86,0.00,CLR,CLR,0.08,WeatherDisplay:10.37,2013-07-05 06:18:00,
2013-07-05 02:33:00,66.4,62.1,30.09,South,180,0.0,0.0,86,0.00,CLR,CLR,0.08,WeatherDisplay:10.37,2013-07-05 06:33:00,
2013-07-05 02:48:00,66.6,62.2,30.12,South,180,0.0,0.0,86,0.00,CLR,CLR,0.08,WeatherDisplay:10.37,2013-07-05 06:48:00,
2013-07-05 03:03:00,66.6,62.2,30.12,South,180,0.0,0.0,86,0.00,CLR,CLR,0.08,WeatherDisplay:10.37,2013-07-05 07:03:00,
2013-07-05 03:04:00,66.9,62.6,30.12,South,180,0.0,0.0,86,0.00,-DZ,-DZ,0.08,WeatherDisplay:10.37,2013-07-05 07:04:00,
2013-07-05 03:05:00,66.9,62.6,30.12,South,180,0.0,0.0,86,0.00,-DZ,-DZ,0.08,WeatherDisplay:10.37,2013-07-05 07:05:00,
2013-07-05 03:06:00,66.9,62.6,30.12,South,180,0.0,0.0,86,0.00,-DZ,-DZ,0.08,WeatherDisplay:10.37,2013-07-05 07:06:00,
2013-07-05 03:07:00,66.9,62.6,30.12,South,180,0.0,0.0,86,0.00,-DZ,-DZ,0.08,WeatherDisplay:10.37,2013-07-05 07:07:00,
2013-07-05 03:08:00,66.9,62.6,30.12,South,180,0.0,0.0,86,0.00,-DZ,-DZ,0.08,WeatherDisplay:10.37,2013-07-05 07:08:00,
2013-07-05 03:09:00,66.9,62.6,30.12,South,180,0.0,0.0,86,0.00,-DZ,-DZ,0.08,WeatherDisplay:10.37,2013-07-05 07:09:00,
2013-07-05 03:10:00,66.9,62.6,30.12,South,180,0.0,0.0,86,0.00,-DZ,-DZ,0.08,WeatherDisplay:10.37,2013-07-05 07:10:00,
2013-07-05 03:11:00,66.9,62.6,30.12,South,180,0.0,0.0,86,0.00,-DZ,-DZ,0.08,WeatherDisplay:10.37,2013-07-05 07:11:00,
2013-07-05 03:12:00,66.9,62.6,30.12,South,180,0.0,0.0,86,0.00,-DZ,-DZ,0.08,WeatherDisplay:10.37,2013-07-05 07:12:00,
2013-07-05 03:13:00,66.9,62.6,30.12,South,180,0.0,0.0,86,0.00,-DZ,-DZ,0.08,WeatherDisplay:10.37,2013-07-05 07:13:00,
2013-07-05 03:14:00,66.9,62.6,30.12,South,180,0.0,0.0,86,0.00,-DZ,-DZ,0.08,WeatherDisplay:10.37,2013-07-05 07:14:00,
2013-07-05 03:15:00,66.9,62.6,30.12,South,180,0.0,0.0,86,0.00,-DZ,-DZ,0.08,WeatherDisplay:10.37,2013-07-05 07:15:00,
2013-07-05 03:16:00,66.9,62.6,30.12,South,180,0.0,0.0,86,0.00,-DZ,-DZ,0.08,WeatherDisplay:10.37,2013-07-05 07:16:00,
2013-07-05 03:17:00,66.9,62.6,30.12,South,180,0.0,0.0,86,0.00,-DZ,-DZ,0.08,WeatherDisplay:10.37,2013-07-05 07:17:00,
2013-07-05 03:18:00,66.9,62.6,30.12,South,180,0.0,0.0,86,0.00,-DZ,-DZ,0.08,WeatherDisplay:10.37,2013-07-05 07:18:00,
2013-07-05 08:08:00,66.7,62.4,30.12,South,180,4.0,0.0,86,0.00,CLR,,0.08,WeatherDisplay:10.37,2013-07-05 12:08:00,
2013-07-05 08:09:00,66.7,62.4,30.12,South,180,0.0,0.0,86,0.00,FEW,,0.08,WeatherDisplay:10.37,2013-07-05 12:09:00,
2013-07-05 08:10:00,66.7,62.4,30.12,South,180,0.0,0.0,86,0.00,FEW,,0.08,WeatherDisplay:10.37,2013-07-05 12:10:00,
2013-07-05 08:15:00,66.7,62.4,30.12,South,180,0.0,0.0,86,0.00,FEW,,0.08,WeatherDisplay:10.37,2013-07-05 12:15:00,
2013-07-05 08:21:00,66.9,62.6,30.12,South,180,0.0,0.0,86,0.00,-DZ,,0.08,WeatherDisplay:10.37,2013-07-05 12:21:00,
2013-07-05 08:26:00,67.1,62.8,30.12,South,180,1.2,0.0,86,0.00,-DZ,,0.08,WeatherDisplay:10.37,2013-07-05 12:26:00,
2013-07-05 08:31:00,67.3,62.9,30.12,South,180,0.0,0.0,86,0.00,-DZ,,0.08,WeatherDisplay:10.37,2013-07-05 12:31:00,
2013-07-05 08:36:00,67.5,63.1,30.12,South,180,0.0,0.0,86,0.00,-DZ,,0.08,WeatherDisplay:10.37,2013-07-05 12:36:00,
2013-07-05 08:41:00,67.6,63.3,30.12,South,180,0.0,0.0,86,0.00,-DZ,,0.08,WeatherDisplay:10.37,2013-07-05 12:41:00,
2013-07-05 08:47:00,67.6,63.3,30.12,South,180,0.0,0.0,86,0.00,-DZ,,0.08,WeatherDisplay:10.37,2013-07-05 12:47:00,
2013-07-05 08:52:00,67.8,63.5,30.12,South,180,0.0,0.0,86,0.00,-DZ,,0.08,WeatherDisplay:10.37,2013-07-05 12:52:00,
2013-07-05 08:58:00,67.8,63.5,30.12,South,180,1.6,1.6,86,0.00,-DZ,,0.08,WeatherDisplay:10.37,2013-07-05 12:58:00,
2013-07-05 09:03:00,68.0,63.7,30.09,SE,125,0.0,0.0,86,0.00,-DZ,-DZ,0.08,WeatherDisplay:10.37,2013-07-05 13:03:00,
2013-07-05 09:08:00,68.2,63.8,30.09,South,180,0.0,0.0,86,0.00,-DZ,,0.08,WeatherDisplay:10.37,2013-07-05 13:08:00,
2013-07-05 09:13:00,68.2,63.8,30.09,South,180,0.0,0.0,86,0.00,-DZ,,0.08,WeatherDisplay:10.37,2013-07-05 13:13:00,
2013-07-05 09:19:00,68.4,64.0,30.09,South,180,0.0,0.0,86,0.00,-DZ,,0.08,WeatherDisplay:10.37,2013-07-05 13:19:00,
2013-07-05 09:25:00,68.4,64.0,30.09,South,180,0.0,0.0,86,0.04,-DZ,,0.12,WeatherDisplay:10.37,2013-07-05 13:25:00,
2013-07-05 09:30:00,68.5,64.2,30.09,South,180,0.0,0.0,86,0.04,-DZ,,0.12,WeatherDisplay:10.37,2013-07-05 13:30:00,
2013-07-05 09:35:00,68.9,64.5,30.12,South,180,0.0,0.0,86,0.04,-DZ,,0.12,WeatherDisplay:10.37,2013-07-05 13:35:00,
2013-07-05 09:40:00,69.1,64.7,30.12,South,180,0.0,0.0,86,0.04,-DZ,,0.12,WeatherDisplay:10.37,2013-07-05 13:40:00,
2013-07-05 09:45:00,69.3,64.9,30.12,South,180,0.0,0.0,86,0.04,-DZ,,0.12,WeatherDisplay:10.37,2013-07-05 13:45:00,
2013-07-05 09:50:00,69.6,65.2,30.12,South,180,0.0,0.0,86,0.04,-DZ,,0.12,WeatherDisplay:10.37,2013-07-05 13:50:00,
2013-07-05 09:55:00,69.6,65.2,30.12,South,180,1.2,0.0,86,0.04,-DZ,,0.12,WeatherDisplay:10.37,2013-07-05 13:55:00,
2013-07-05 10:01:00,70.0,65.6,30.12,South,180,0.0,0.0,86,0.04,-DZ,,0.12,WeatherDisplay:10.37,2013-07-05 14:01:00,
2013-07-05 10:06:00,70.0,65.6,30.12,South,180,1.4,0.0,86,0.04,-DZ,,0.12,WeatherDisplay:10.37,2013-07-05 14:06:00,
2013-07-05 10:12:00,70.0,65.6,30.12,South,180,1.2,1.2,86,0.04,-DZ,,0.12,WeatherDisplay:10.37,2013-07-05 14:12:00,
2013-07-05 10:17:00,70.2,65.8,30.12,South,180,1.2,1.2,86,0.04,OVC,,0.12,WeatherDisplay:10.37,2013-07-05 14:17:00,
2013-07-05 10:23:00,70.2,65.8,30.12,South,180,2.3,0.0,86,0.00,OVC,,0.12,WeatherDisplay:10.37,2013-07-05 14:23:00,
2013-07-05 10:28:00,70.3,66.0,30.12,South,180,1.2,0.0,86,0.00,OVC,,0.12,WeatherDisplay:10.37,2013-07-05 14:28:00,
2013-07-05 10:33:00,70.5,66.1,30.12,SW,225,1.4,1.4,86,0.00,OVC,,0.12,WeatherDisplay:10.37,2013-07-05 14:33:00,
2013-07-05 10:38:00,70.7,66.3,30.12,SW,225,1.2,0.0,86,0.00,OVC,,0.12,WeatherDisplay:10.37,2013-07-05 14:38:00,
2013-07-05 10:43:00,70.5,66.1,30.12,SSW,202,3.5,3.5,86,0.00,OVC,,0.12,WeatherDisplay:10.37,2013-07-05 14:43:00,
2013-07-05 10:48:00,70.3,66.0,30.12,West,270,2.3,2.3,86,0.00,-DZ,,0.12,WeatherDisplay:10.37,2013-07-05 14:48:00,
2013-07-05 10:53:00,70.5,66.1,30.12,South,180,2.3,2.4,86,0.00,-DZ,,0.12,WeatherDisplay:10.37,2013-07-05 14:53:00,
2013-07-05 10:58:00,70.9,66.5,30.12,South,180,1.2,0.0,86,0.00,-DZ,,0.12,WeatherDisplay:10.37,2013-07-05 14:58:00,
2013-07-05 11:03:00,71.6,67.2,30.12,South,180,0.0,0.0,86,0.00,-DZ,,0.12,WeatherDisplay:10.37,2013-07-05 15:03:00,
2013-07-05 11:09:00,71.8,67.4,30.12,South,180,1.2,0.0,86,0.00,-DZ,,0.12,WeatherDisplay:10.37,2013-07-05 15:09:00,
2013-07-05 11:14:00,72.0,67.5,30.12,West,270,2.3,2.3,86,0.00,-DZ,,0.12,WeatherDisplay:10.37,2013-07-05 15:14:00,
2013-07-05 11:19:00,71.6,67.2,30.12,South,180,4.6,4.6,86,0.00,OVC,,0.12,WeatherDisplay:10.37,2013-07-05 15:19:00,
2013-07-05 11:24:00,71.6,67.2,30.12,South,180,4.6,4.6,86,0.00,OVC,,0.12,WeatherDisplay:10.37,2013-07-05 15:24:00,
2013-07-05 11:29:00,71.2,66.8,30.12,SSW,202,4.6,4.6,86,0.00,OVC,,0.12,WeatherDisplay:10.37,2013-07-05 15:29:00,
2013-07-05 11:34:00,71.2,66.8,30.12,SW,225,2.3,2.3,86,0.00,-RA,,0.12,WeatherDisplay:10.37,2013-07-05 15:34:00,
2013-07-05 11:39:00,71.4,67.0,30.12,SSW,202,3.5,3.5,86,0.00,-RA,,0.12,WeatherDisplay:10.37,2013-07-05 15:39:00,
2013-07-05 11:44:00,71.4,67.0,30.12,South,180,2.3,2.3,86,0.00,-RA,,0.12,WeatherDisplay:10.37,2013-07-05 15:44:00,
2013-07-05 11:49:00,71.8,67.4,30.12,South,180,3.5,3.5,86,0.00,-RA,,0.12,WeatherDisplay:10.37,2013-07-05 15:49:00,
2013-07-05 11:50:00,71.8,67.4,30.12,South,180,3.5,3.5,86,0.00,-RA,,0.12,WeatherDisplay:10.37,2013-07-05 15:50:00,
2013-07-05 11:55:00,71.8,67.4,30.12,SSW,202,1.2,1.2,86,0.00,-RA,,0.12,WeatherDisplay:10.37,2013-07-05 15:55:00,
2013-07-05 12:00:00,72.0,67.5,30.12,South,180,3.5,3.5,86,0.00,-RA,,0.12,WeatherDisplay:10.37,2013-07-05 16:00:00,
2013-07-05 12:05:00,72.3,71.1,30.12,SW,225,2.3,2.4,96,0.00,-DZ,,0.12,WeatherDisplay:10.37,2013-07-05 16:05:00,
2013-07-05 12:10:00,72.3,70.8,30.12,SSW,202,2.3,2.3,95,0.00,-DZ,,0.12,WeatherDisplay:10.37,2013-07-05 16:10:00,
2013-07-05 12:15:00,72.5,71.6,30.12,SW,225,1.2,0.0,97,0.00,-DZ,,0.12,WeatherDisplay:10.37,2013-07-05 16:15:00,
2013-07-05 12:20:00,72.9,71.7,30.12,South,180,2.3,2.3,96,0.00,-DZ,,0.12,WeatherDisplay:10.37,2013-07-05 16:20:00,
2013-07-05 12:25:00,73.0,71.2,30.12,SW,225,2.3,2.3,94,0.00,-DZ,,0.12,WeatherDisplay:10.37,2013-07-05 16:25:00,
2013-07-05 12:30:00,73.4,70.9,30.12,South,180,2.3,2.3,92,0.00,-DZ,,0.12,WeatherDisplay:10.37,2013-07-05 16:30:00,
2013-07-05 12:35:00,73.2,69.8,30.09,South,180,2.3,2.3,89,0.00,OVC,,0.12,WeatherDisplay:10.37,2013-07-05 16:35:00,
2013-07-05 12:40:00,72.9,68.8,30.09,South,180,2.3,2.3,87,0.00,OVC,,0.12,WeatherDisplay:10.37,2013-07-05 16:40:00,
2013-07-05 12:45:00,72.9,69.1,30.09,SSW,202,2.4,2.4,88,0.00,OVC,,0.12,WeatherDisplay:10.37,2013-07-05 16:45:00,
2013-07-05 12:50:00,72.9,69.4,30.12,SSW,202,2.4,2.4,89,0.00,OVC,,0.12,WeatherDisplay:10.37,2013-07-05 16:50:00,
2013-07-05 12:55:00,73.4,69.6,30.12,South,180,2.3,2.3,88,0.00,OVC,,0.12,WeatherDisplay:10.37,2013-07-05 16:55:00,
2013-07-05 13:00:00,73.6,70.1,30.12,South,180,0.0,0.0,89,0.00,OVC,,0.12,WeatherDisplay:10.37,2013-07-05 17:00:00,
2013-07-05 13:05:00,74.7,71.2,30.12,South,180,2.6,2.6,89,0.00,OVC,,0.12,WeatherDisplay:10.37,2013-07-05 17:05:00,
2013-07-05 13:10:00,78.8,73.2,30.12,South,180,4.6,4.6,83,0.00,OVC,,0.12,WeatherDisplay:10.37,2013-07-05 17:10:00,
2013-07-05 13:15:00,78.4,70.2,30.12,SW,225,4.7,4.7,76,0.00,OVC,,0.12,WeatherDisplay:10.37,2013-07-05 17:15:00,
2013-07-05 13:20:00,80.1,71.4,30.12,South,180,3.5,3.5,75,0.00,OVC,,0.12,WeatherDisplay:10.37,2013-07-05 17:20:00,
2013-07-05 13:25:00,77.9,69.3,30.12,WSW,248,4.6,4.6,75,0.00,OVC,,0.12,WeatherDisplay:10.37,2013-07-05 17:25:00,
2013-07-05 13:30:00,77.2,68.6,30.12,SW,225,4.6,4.6,75,0.00,OVC,,0.12,WeatherDisplay:10.37,2013-07-05 17:30:00,
2013-07-05 13:35:00,75.4,67.3,30.12,WSW,248,4.6,4.6,76,0.00,OVC,,0.12,WeatherDisplay:10.37,2013-07-05 17:35:00,
2013-07-05 13:40:00,75.6,67.8,30.12,SW,225,2.3,2.3,77,0.00,OVC,,0.12,WeatherDisplay:10.37,2013-07-05 17:40:00,
2013-07-05 13:45:00,75.4,67.3,30.12,SW,225,5.8,5.8,76,0.00,OVC,,0.12,WeatherDisplay:10.37,2013-07-05 17:45:00,
2013-07-05 13:50:00,75.4,67.3,30.12,WSW,248,4.6,4.6,76,0.00,OVC,,0.12,WeatherDisplay:10.37,2013-07-05 17:50:00,
2013-07-05 13:55:00,76.8,69.1,30.12,SW,225,2.3,2.3,77,0.00,OVC,,0.12,WeatherDisplay:10.37,2013-07-05 17:55:00,
2013-07-05 14:00:00,77.4,69.6,30.12,South,180,2.3,2.3,77,0.00,OVC,,0.12,WeatherDisplay:10.37,2013-07-05 18:00:00,
2013-07-05 14:05:00,77.7,69.5,30.12,SE,135,1.2,0.0,76,0.00,OVC,,0.12,WeatherDisplay:10.37,2013-07-05 18:05:00,
2013-07-05 14:10:00,78.1,70.3,30.12,NE,45,0.0,0.0,77,0.00,OVC,,0.12,WeatherDisplay:10.37,2013-07-05 18:10:00,
2013-07-05 14:15:00,78.3,70.5,30.12,NE,45,0.0,0.0,77,0.00,OVC,,0.12,WeatherDisplay:10.37,2013-07-05 18:15:00,
2013-07-05 14:20:00,79.0,70.8,30.12,SW,225,1.2,0.0,76,0.00,OVC,,0.12,WeatherDisplay:10.37,2013-07-05 18:20:00,
2013-07-05 14:25:00,80.6,72.3,30.12,SW,225,3.5,3.5,76,0.00,OVC,,0.12,WeatherDisplay:10.37,2013-07-05 18:25:00,
2013-07-05 14:30:00,81.1,72.5,30.12,South,180,3.5,3.5,75,0.00,OVC,,0.12,WeatherDisplay:10.37,2013-07-05 18:30:00,
2013-07-05 14:39:00,83.1,74.0,30.12,SW,225,5.4,5.4,74,0.00,SCT,,0.12,WeatherDisplay:10.37,2013-07-05 18:39:00,
2013-07-05 14:41:00,81.9,72.8,30.12,SW,225,3.5,3.5,74,0.00,SCT,,0.12,WeatherDisplay:10.37,2013-07-05 18:41:00,
2013-07-05 14:46:00,82.0,72.9,30.12,SW,225,3.6,3.6,74,0.00,SCT,,0.12,WeatherDisplay:10.37,2013-07-05 18:46:00,
2013-07-05 14:51:00,82.0,72.9,30.12,South,180,3.5,3.5,74,0.00,SCT,,0.12,WeatherDisplay:10.37,2013-07-05 18:51:00,
2013-07-05 14:56:00,81.5,72.4,30.12,NNE,22,2.3,2.3,74,0.00,SCT,,0.12,WeatherDisplay:10.37,2013-07-05 18:56:00,
2013-07-05 15:01:00,81.5,72.4,30.12,South,180,3.5,3.5,74,0.00,BKN,,0.12,WeatherDisplay:10.37,2013-07-05 19:01:00,
2013-07-05 15:06:00,81.1,71.3,30.12,SSW,202,2.9,2.9,72,0.00,BKN,,0.12,WeatherDisplay:10.37,2013-07-05 19:06:00,
2013-07-05 15:11:00,82.0,72.9,30.12,South,180,2.3,2.3,74,0.00,BKN,,0.12,WeatherDisplay:10.37,2013-07-05 19:11:00,
2013-07-05 15:16:00,83.5,74.3,30.12,SE,135,2.3,2.3,74,0.00,BKN,,0.12,WeatherDisplay:10.37,2013-07-05 19:16:00,
2013-07-05 15:21:00,82.9,72.6,30.12,South,180,4.6,4.6,71,0.00,BKN,,0.12,WeatherDisplay:10.37,2013-07-05 19:21:00,
2013-07-05 15:26:00,82.0,72.1,30.12,East,90,1.6,1.6,72,0.00,BKN,,0.12,WeatherDisplay:10.37,2013-07-05 19:26:00,
2013-07-05 15:31:00,81.7,71.8,30.12,WSW,248,2.6,2.6,72,0.00,FEW,,0.12,WeatherDisplay:10.37,2013-07-05 19:31:00,
2013-07-05 15:36:00,81.0,71.1,30.12,South,180,1.2,0.0,72,0.00,FEW,,0.12,WeatherDisplay:10.37,2013-07-05 19:36:00,
2013-07-05 15:41:00,81.1,71.3,30.12,WSW,248,3.6,3.6,72,0.00,FEW,,0.12,WeatherDisplay:10.37,2013-07-05 19:41:00,
2013-07-05 15:46:00,81.1,71.3,30.12,East,90,0.0,0.0,72,0.00,FEW,,0.12,WeatherDisplay:10.37,2013-07-05 19:46:00,
2013-07-05 15:51:00,81.3,71.4,30.12,East,90,0.0,0.0,72,0.00,FEW,,0.12,WeatherDisplay:10.37,2013-07-05 19:51:00,
2013-07-05 15:56:00,81.3,71.4,30.12,East,90,1.2,0.0,72,0.00,FEW,,0.12,WeatherDisplay:10.37,2013-07-05 19:56:00,
2013-07-05 16:01:00,81.5,71.6,30.12,SW,225,1.2,0.0,72,0.00,BKN,,0.12,WeatherDisplay:10.37,2013-07-05 20:01:00,
2013-07-05 16:06:00,80.6,70.7,30.12,SW,225,3.5,3.5,72,0.00,BKN,,0.12,WeatherDisplay:10.37,2013-07-05 20:06:00,
2013-07-05 16:11:00,80.8,70.9,30.12,South,180,2.3,2.3,72,0.00,BKN,,0.12,WeatherDisplay:10.37,2013-07-05 20:11:00,
2013-07-05 16:16:00,80.4,70.6,30.12,South,180,3.5,3.5,72,0.00,BKN,,0.12,WeatherDisplay:10.37,2013-07-05 20:16:00,
2013-07-05 16:20:00,80.6,70.7,30.12,South,180,2.4,0.0,72,0.00,BKN,,0.12,WeatherDisplay:10.37,2013-07-05 20:20:00,
2013-07-05 16:25:00,80.4,70.6,30.12,East,90,1.2,0.0,72,0.00,BKN,,0.12,WeatherDisplay:10.37,2013-07-05 20:25:00,
2013-07-05 16:30:00,80.6,70.7,30.12,SE,135,1.2,0.0,72,0.00,BKN,,0.12,WeatherDisplay:10.37,2013-07-05 20:30:00,
2013-07-05 16:35:00,80.1,70.2,30.12,South,180,4.0,4.0,72,0.00,FEW,,0.12,WeatherDisplay:10.37,2013-07-05 20:35:00,
2013-07-05 16:40:00,79.7,69.9,30.12,SW,225,3.1,3.1,72,0.00,FEW,,0.12,WeatherDisplay:10.37,2013-07-05 20:40:00,
2013-07-05 16:45:00,79.5,70.9,30.12,South,180,2.4,2.4,75,0.00,FEW,,0.12,WeatherDisplay:10.37,2013-07-05 20:45:00,
2013-07-05 16:50:00,79.3,70.7,30.09,South,180,3.5,3.5,75,0.00,BKN,,0.12,WeatherDisplay:10.37,2013-07-05 20:50:00,
2013-07-05 16:55:00,79.2,70.5,30.09,SE,135,3.5,3.5,75,0.00,BKN,,0.12,WeatherDisplay:10.37,2013-07-05 20:55:00,
2013-07-05 16:56:00,79.0,70.4,30.09,South,180,2.3,2.3,75,0.00,BKN,,0.12,WeatherDisplay:10.37,2013-07-05 20:56:00,
2013-07-05 17:01:00,78.8,70.2,30.09,SE,135,1.2,0.0,75,0.00,FEW,,0.12,WeatherDisplay:10.37,2013-07-05 21:01:00,
2013-07-05 17:06:00,78.8,70.2,30.12,South,180,2.3,2.3,75,0.00,FEW,,0.12,WeatherDisplay:10.37,2013-07-05 21:06:00,
2013-07-05 17:11:00,78.6,70.0,30.12,South,180,2.3,2.3,75,0.00,FEW,,0.12,WeatherDisplay:10.37,2013-07-05 21:11:00,
2013-07-05 17:16:00,78.8,70.2,30.12,South,180,2.3,0.0,75,0.00,FEW,,0.12,WeatherDisplay:10.37,2013-07-05 21:16:00,
2013-07-05 17:21:00,79.0,70.4,30.09,South,180,2.0,0.0,75,0.00,FEW,,0.12,WeatherDisplay:10.37,2013-07-05 21:21:00,
2013-07-05 17:26:00,78.6,70.0,30.09,South,180,6.9,6.9,75,0.00,FEW,,0.12,WeatherDisplay:10.37,2013-07-05 21:26:00,
2013-07-05 17:31:00,79.0,70.4,30.09,South,180,2.4,2.4,75,0.00,FEW,,0.12,WeatherDisplay:10.37,2013-07-05 21:31:00,
2013-07-05 17:36:00,78.4,69.9,30.12,South,180,4.6,4.6,75,0.00,FEW,,0.12,WeatherDisplay:10.37,2013-07-05 21:36:00,
2013-07-05 17:41:00,78.1,69.5,30.12,South,180,4.6,4.6,75,0.00,FEW,,0.12,WeatherDisplay:10.37,2013-07-05 21:41:00,
2013-07-05 17:46:00,77.5,69.0,30.12,South,180,3.5,3.5,75,0.00,FEW,,0.12,WeatherDisplay:10.37,2013-07-05 21:46:00,
2013-07-05 17:51:00,77.2,68.6,30.12,East,90,3.5,3.5,75,0.00,FEW,,0.12,WeatherDisplay:10.37,2013-07-05 21:51:00,
2013-07-05 17:52:00,77.2,68.6,30.12,South,180,2.3,2.3,75,0.00,FEW,,0.12,WeatherDisplay:10.37,2013-07-05 21:52:00,
2013-07-05 17:57:00,77.0,68.5,30.12,South,180,2.3,2.3,75,0.00,FEW,,0.12,WeatherDisplay:10.37,2013-07-05 21:57:00,
2013-07-05 18:02:00,76.6,68.1,30.12,SW,225,3.5,3.5,75,0.00,FEW,,0.12,WeatherDisplay:10.37,2013-07-05 22:02:00,
2013-07-05 18:07:00,76.3,68.2,30.09,SSW,202,4.6,4.6,76,0.00,FEW,,0.12,WeatherDisplay:10.37,2013-07-05 22:07:00,
2013-07-05 18:12:00,75.9,67.8,30.09,South,180,3.5,3.5,76,0.00,FEW,,0.12,WeatherDisplay:10.37,2013-07-05 22:12:00,
2013-07-05 18:17:00,75.7,67.6,30.09,South,180,3.5,3.5,76,0.00,FEW,,0.12,WeatherDisplay:10.37,2013-07-05 22:17:00,
2013-07-05 18:18:00,75.7,67.6,30.12,South,180,3.5,3.5,76,0.00,FEW,,0.12,WeatherDisplay:10.37,2013-07-05 22:18:00,
2013-07-05 18:22:00,75.4,67.3,30.12,SSW,202,4.6,4.6,76,0.00,FEW,,0.12,WeatherDisplay:10.37,2013-07-05 22:22:00,
2013-07-05 18:28:00,75.0,67.3,30.12,South,180,4.6,4.6,77,0.00,FEW,,0.12,WeatherDisplay:10.37,2013-07-05 22:28:00,
2013-07-05 18:33:00,74.8,67.5,30.09,SSW,202,1.4,1.4,78,0.00,OVC,,0.12,WeatherDisplay:10.37,2013-07-05 22:33:00,
2013-07-05 18:38:00,74.7,67.7,30.09,South,180,3.5,3.5,79,0.00,OVC,,0.12,WeatherDisplay:10.37,2013-07-05 22:38:00,
2013-07-05 18:43:00,74.5,67.9,30.09,SW,225,2.4,2.4,80,0.00,OVC,,0.12,WeatherDisplay:10.37,2013-07-05 22:43:00,
2013-07-05 18:48:00,74.1,68.6,30.09,SW,225,2.3,2.3,83,0.00,OVC,,0.12,WeatherDisplay:10.37,2013-07-05 22:48:00,
2013-07-05 18:53:00,74.1,69.0,30.09,South,180,2.4,2.4,84,0.00,OVC,,0.12,WeatherDisplay:10.37,2013-07-05 22:53:00,
2013-07-05 18:58:00,73.9,69.5,30.09,South,180,2.3,2.3,86,0.00,OVC,,0.12,WeatherDisplay:10.37,2013-07-05 22:58:00,
2013-07-05 19:03:00,73.6,70.1,30.09,SW,225,2.0,2.0,89,0.00,FEW,,0.12,WeatherDisplay:10.37,2013-07-05 23:03:00,
2013-07-05 19:08:00,73.4,70.3,30.09,SW,225,2.3,2.3,90,0.00,FEW,,0.12,WeatherDisplay:10.37,2013-07-05 23:08:00,
2013-07-05 19:13:00,73.4,70.0,30.09,SSW,202,2.3,2.3,89,0.00,FEW,,0.12,WeatherDisplay:10.37,2013-07-05 23:13:00,
2013-07-05 19:18:00,73.0,70.3,30.09,SSW,202,4.6,4.6,91,0.00,FEW,,0.12,WeatherDisplay:10.37,2013-07-05 23:18:00,
2013-07-05 19:23:00,73.0,69.9,30.09,SSW,202,1.4,2.0,90,0.00,FEW,,0.12,WeatherDisplay:10.37,2013-07-05 23:23:00,
2013-07-05 19:28:00,73.0,70.3,30.09,South,180,2.3,2.3,91,0.00,FEW,,0.12,WeatherDisplay:10.37,2013-07-05 23:28:00,
2013-07-05 19:33:00,72.9,69.8,30.12,South,180,0.0,0.9,90,0.00,FEW,,0.12,WeatherDisplay:10.37,2013-07-05 23:33:00,
2013-07-05 19:38:00,72.9,69.8,30.12,South,180,1.2,0.0,90,0.00,FEW,,0.12,WeatherDisplay:10.37,2013-07-05 23:38:00,
2013-07-05 19:43:00,72.7,69.6,30.12,SSW,202,1.2,1.4,90,0.00,FEW,,0.12,WeatherDisplay:10.37,2013-07-05 23:43:00,
2013-07-05 19:48:00,72.7,70.5,30.09,South,180,2.3,2.3,93,0.00,FEW,,0.12,WeatherDisplay:10.37,2013-07-05 23:48:00,
2013-07-05 19:53:00,72.5,70.0,30.09,South,180,0.0,0.0,92,0.00,FEW,,0.12,WeatherDisplay:10.37,2013-07-05 23:53:00,
2013-07-05 19:58:00,72.5,70.7,30.09,West,270,2.3,0.0,94,0.00,FEW,,0.12,WeatherDisplay:10.37,2013-07-05 23:58:00,
2013-07-05 20:03:00,72.3,71.1,30.12,SW,225,0.0,0.0,96,0.00,FEW,,0.12,WeatherDisplay:10.37,2013-07-06 00:03:00,
2013-07-05 20:08:00,72.3,70.8,30.12,SW,225,0.0,0.0,95,0.00,FEW,,0.12,WeatherDisplay:10.37,2013-07-06 00:08:00,
2013-07-05 20:13:00,72.1,70.9,30.12,SW,225,1.2,0.0,96,0.00,FEW,,0.12,WeatherDisplay:10.37,2013-07-06 00:13:00,
2013-07-05 20:18:00,72.1,70.9,30.12,South,180,1.2,1.2,96,0.00,SCT,,0.12,WeatherDisplay:10.37,2013-07-06 00:18:00,
2013-07-05 20:23:00,72.1,71.2,30.12,South,180,0.0,0.0,97,0.00,SCT,,0.12,WeatherDisplay:10.37,2013-07-06 00:23:00,
2013-07-05 20:28:00,72.0,71.1,30.12,South,180,0.9,0.0,97,0.00,SCT,,0.12,WeatherDisplay:10.37,2013-07-06 00:28:00,
2013-07-05 20:33:00,71.8,70.9,30.12,South,180,1.2,1.2,97,0.00,SCT,,0.12,WeatherDisplay:10.37,2013-07-06 00:33:00,
2013-07-05 20:38:00,71.8,70.9,30.12,South,180,2.6,2.6,97,0.00,SCT,,0.12,WeatherDisplay:10.37,2013-07-06 00:38:00,
2013-07-05 20:43:00,71.6,70.7,30.12,South,180,4.6,4.6,97,0.00,SCT,,0.12,WeatherDisplay:10.37,2013-07-06 00:43:00,
2013-07-05 20:48:00,71.2,70.3,30.09,South,180,2.4,2.4,97,0.00,SCT,,0.12,WeatherDisplay:10.37,2013-07-06 00:48:00,
2013-07-05 20:53:00,70.9,70.0,30.09,South,180,3.5,3.5,97,0.00,SCT,,0.12,WeatherDisplay:10.37,2013-07-06 00:53:00,
2013-07-05 20:58:00,70.7,69.8,30.09,SW,225,3.5,3.5,97,0.00,SCT,,0.12,WeatherDisplay:10.37,2013-07-06 00:58:00,
2013-07-05 21:03:00,70.7,69.8,30.12,South,180,3.5,3.5,97,0.00,SCT,,0.12,WeatherDisplay:10.37,2013-07-06 01:03:00,
2013-07-05 21:08:00,70.5,69.6,30.12,South,180,1.4,1.4,97,0.00,SCT,,0.12,WeatherDisplay:10.37,2013-07-06 01:08:00,
2013-07-05 21:13:00,70.5,69.6,30.12,South,180,2.9,2.9,97,0.00,SCT,,0.12,WeatherDisplay:10.37,2013-07-06 01:13:00,
2013-07-05 21:18:00,70.3,69.4,30.12,South,180,5.8,5.8,97,0.00,FEW,,0.12,WeatherDisplay:10.37,2013-07-06 01:18:00,
2013-07-05 21:23:00,70.2,69.3,30.12,South,180,4.6,4.6,97,0.00,FEW,,0.12,WeatherDisplay:10.37,2013-07-06 01:23:00,
2013-07-05 21:28:00,69.8,68.9,30.12,South,180,2.3,2.3,97,0.00,FEW,,0.12,WeatherDisplay:10.37,2013-07-06 01:28:00,
2013-07-05 21:33:00,69.6,68.7,30.12,South,180,3.5,3.5,97,0.00,FEW,,0.12,WeatherDisplay:10.37,2013-07-06 01:33:00,
2013-07-05 21:38:00,69.3,68.1,30.12,South,180,2.3,2.3,96,0.00,FEW,,0.12,WeatherDisplay:10.37,2013-07-06 01:38:00,
2013-07-05 21:43:00,68.9,67.7,30.12,South,180,2.3,2.3,96,0.00,FEW,,0.12,WeatherDisplay:10.37,2013-07-06 01:43:00,
2013-07-05 21:48:00,66.7,61.4,30.12,SSW,193,2.0,2.0,83,0.08,RA,RA,0.92,WeatherDisplay:10.37,2013-07-06 01:48:00,
2013-07-05 21:49:00,68.7,67.5,30.12,SSE,158,2.3,2.3,96,0.00,SCT,,0.12,WeatherDisplay:10.37,2013-07-06 01:49:00,
2013-07-05 21:54:00,68.5,67.4,30.12,SE,135,3.5,3.5,96,0.04,RA,,0.16,WeatherDisplay:10.37,2013-07-06 01:54:00,
2013-07-05 21:59:00,68.4,67.5,30.12,SSE,158,2.3,2.3,97,0.04,RA,,0.16,WeatherDisplay:10.37,2013-07-06 01:59:00,
2013-07-05 22:03:00,66.4,60.7,30.12,SSW,213,3.0,4.0,82,0.08,CLR,CLR,0.92,WeatherDisplay:10.37,2013-07-06 02:03:00,
2013-07-05 22:04:00,68.2,67.3,30.12,SE,135,1.2,1.2,97,0.04,SCT,,0.16,WeatherDisplay:10.37,2013-07-06 02:04:00,
2013-07-05 22:09:00,68.0,67.1,30.12,South,180,0.9,0.9,97,0.04,SCT,,0.16,WeatherDisplay:10.37,2013-07-06 02:09:00,
2013-07-05 22:14:00,68.0,67.1,30.12,SW,225,0.0,0.0,97,0.04,SCT,,0.16,WeatherDisplay:10.37,2013-07-06 02:14:00,
2013-07-05 22:18:00,66.2,60.2,30.12,SSW,204,3.0,4.0,81,0.12,RA,RA,0.96,WeatherDisplay:10.37,2013-07-06 02:18:00,
2013-07-05 22:19:00,68.0,67.1,30.12,SW,225,1.2,1.2,97,0.04,SCT,,0.16,WeatherDisplay:10.37,2013-07-06 02:19:00,
2013-07-05 22:24:00,68.0,67.1,30.12,South,180,1.2,0.0,97,0.04,SCT,,0.16,WeatherDisplay:10.37,2013-07-06 02:24:00,
2013-07-05 22:29:00,67.8,66.9,30.12,South,180,1.2,0.0,97,0.04,SCT,,0.16,WeatherDisplay:10.37,2013-07-06 02:29:00,
2013-07-05 22:33:00,66.0,60.0,30.12,SSW,213,3.0,5.0,81,0.08,CLR,CLR,0.96,WeatherDisplay:10.37,2013-07-06 02:33:00,
2013-07-05 22:34:00,67.8,66.9,30.12,South,180,1.2,0.0,97,0.04,-RA,,0.16,WeatherDisplay:10.37,2013-07-06 02:34:00,
2013-07-05 22:39:00,67.8,66.9,30.12,SE,135,1.2,0.0,97,0.04,-RA,,0.16,WeatherDisplay:10.37,2013-07-06 02:39:00,
2013-07-05 22:44:00,67.6,66.8,30.12,SE,135,0.9,0.0,97,0.04,-RA,,0.16,WeatherDisplay:10.37,2013-07-06 02:44:00,
2013-07-05 22:48:00,65.8,59.5,30.12,SSW,195,1.0,5.0,80,0.04,CLR,CLR,0.96,WeatherDisplay:10.37,2013-07-06 02:48:00,
2013-07-05 22:49:00,67.6,66.8,30.12,East,90,1.2,0.0,97,0.04,-RA,,0.16,WeatherDisplay:10.37,2013-07-06 02:49:00,
2013-07-05 22:52:00,67.5,66.6,30.12,East,90,1.2,0.0,97,0.00,-RA,,0.16,WeatherDisplay:10.37,2013-07-06 02:52:00,
2013-07-05 22:57:00,67.5,66.6,30.12,SE,135,2.3,2.3,97,0.00,-RA,,0.16,WeatherDisplay:10.37,2013-07-06 02:57:00,
2013-07-05 22:59:00,67.5,66.6,30.12,SE,135,1.2,0.0,97,0.00,-RA,,0.16,WeatherDisplay:10.37,2013-07-06 02:59:00,
2013-07-05 23:03:00,65.5,58.8,30.12,SSW,211,2.0,3.0,79,0.08,CLR,CLR,1.00,WeatherDisplay:10.37,2013-07-06 03:03:00,
2013-07-05 23:04:00,67.3,66.4,30.12,SE,135,0.0,0.0,97,0.00,-RA,,0.00,WeatherDisplay:10.37,2013-07-06 03:04:00,
2013-07-05 23:09:00,67.3,66.4,30.12,SW,225,1.2,0.0,97,0.04,-RA,,0.04,WeatherDisplay:10.37,2013-07-06 03:09:00,
2013-07-05 23:14:00,67.3,66.4,30.12,SW,225,0.0,0.0,97,0.04,-RA,,0.04,WeatherDisplay:10.37,2013-07-06 03:14:00,
2013-07-05 23:18:00,65.5,59.1,30.12,SSW,202,1.0,3.0,80,0.08,RA,RA,1.04,WeatherDisplay:10.37,2013-07-06 03:18:00,
2013-07-05 23:19:00,67.3,66.4,30.12,SW,225,0.0,0.0,97,0.04,-RA,,0.04,WeatherDisplay:10.37,2013-07-06 03:19:00,
2013-07-05 23:33:00,65.5,60.2,30.12,SW,222,2.0,3.0,83,0.08,CLR,CLR,1.04,WeatherDisplay:10.37,2013-07-06 03:33:00,
2013-07-05 23:48:00,65.1,59.5,30.12,SW,222,1.0,4.0,82,0.13,CLR,CLR,1.09,WeatherDisplay:10.37,2013-07-06 03:48:00,